| time (UTC) | temp F | wind direction | speed MPH | gust MPH | rain 1hr in | rain 24hr in | rain mn in | humidity % | barometer mb |
| 20260508035635 | 55 | 140 | 2.0 | 7.0 | 0.00 | 0.00 | 0.00 | 45 | 1014.0 |
| 20260508034619 | 56 | 153 | 4.0 | 9.0 | 0.00 | 0.00 | 0.00 | 45 | 1013.9 |
| 20260508033628 | 56 | 153 | 4.0 | 8.0 | 0.00 | 0.00 | 0.00 | 44 | 1013.9 |
| 20260508032615 | 54 | 130 | 7.0 | 9.0 | 0.00 | 0.00 | 0.00 | 48 | 1013.7 |
| 20260508031624 | 54 | 132 | 4.0 | 9.0 | 0.00 | 0.00 | 0.00 | 49 | 1013.7 |
| 20260508030631 | 55 | 122 | 5.0 | 7.0 | 0.00 | 0.00 | 0.00 | 47 | 1013.6 |
| 20260508025626 | 56 | 131 | 1.0 | 3.0 | 0.00 | 0.00 | 0.00 | 46 | 1013.4 |
| 20260508024612 | 57 | 131 | 3.0 | 4.0 | 0.00 | 0.00 | 0.00 | 44 | 1013.3 |
| 20260508023624 | 59 | 130 | 2.0 | 7.0 | 0.00 | 0.00 | 0.00 | 40 | 1013.2 |
| 20260508022632 | 60 | 153 | 4.0 | 8.0 | 0.00 | 0.00 | 0.00 | 39 | 1013.1 |
| 20260508021619 | 62 | 162 | 4.0 | 6.0 | 0.00 | 0.00 | 0.00 | 38 | 1013.0 |
| 20260508020644 | 63 | 143 | 4.0 | 7.0 | 0.00 | 0.00 | 0.00 | 36 | 1013.0 |
| 20260508015628 | 64 | 168 | 0.0 | 3.0 | 0.00 | 0.00 | 0.00 | 34 | 1012.9 |
| 20260508014619 | 65 | 165 | 0.0 | 7.0 | 0.00 | 0.00 | 0.00 | 31 | 1012.8 |
| 20260508013627 | 66 | 302 | 0.0 | 4.0 | 0.00 | 0.00 | 0.00 | 32 | 1012.8 |
| 20260508012613 | 66 | 313 | 2.0 | 5.0 | 0.00 | 0.00 | 0.00 | 31 | 1012.9 |
| 20260508011622 | 66 | 251 | 0.0 | 5.0 | 0.00 | 0.00 | 0.00 | 30 | 1012.7 |
| 20260508010613 | 66 | 278 | 5.0 | 11.0 | 0.00 | 0.00 | 0.00 | 29 | 1012.8 |
| 20260508005614 | 66 | 281 | 3.0 | 9.0 | 0.00 | 0.00 | 0.00 | 31 | 1012.8 |
| 20260508004620 | 66 | 266 | 6.0 | 11.0 | 0.00 | 0.00 | 0.00 | 30 | 1013.0 |
| 20260508003614 | 66 | 288 | 7.0 | 13.0 | 0.00 | 0.00 | 0.00 | 29 | 1012.9 |
| 20260508002621 | 66 | 277 | 4.0 | 16.0 | 0.00 | 0.00 | 0.00 | 31 | 1013.0 |
| 20260508001631 | 66 | 295 | 5.0 | 18.0 | 0.00 | 0.00 | 0.00 | 30 | 1013.0 |
| 20260508000614 | 66 | 5 | 6.0 | 15.0 | 0.00 | 0.00 | 0.00 | 29 | 1012.9 |
| 20260507235640 | 67 | 20 | 5.0 | 15.0 | 0.00 | 0.00 | 0.00 | 29 | 1013.0 |
| 20260507234628 | 67 | 276 | 5.0 | 12.0 | 0.00 | 0.00 | 0.00 | 31 | 1013.1 |
| 20260507233640 | 66 | 300 | 4.0 | 13.0 | 0.00 | 0.00 | 0.00 | 30 | 1013.1 |
| 20260507232629 | 66 | 272 | 4.0 | 10.0 | 0.00 | 0.00 | 0.00 | 31 | 1013.1 |
| 20260507231624 | 67 | 332 | 3.0 | 10.0 | 0.00 | 0.00 | 0.00 | 31 | 1013.2 |
| 20260507230615 | 66 | 297 | 6.0 | 14.0 | 0.00 | 0.00 | 0.00 | 30 | 1013.2 |
| 20260507225637 | 64 | 295 | 7.0 | 16.0 | 0.00 | 0.00 | 0.00 | 29 | 1013.4 |
| 20260507224623 | 62 | 273 | 6.0 | 17.0 | 0.00 | 0.00 | 0.00 | 31 | 1013.4 |
| 20260507223616 | 63 | 289 | 7.0 | 13.0 | 0.00 | 0.00 | 0.00 | 31 | 1013.4 |
| 20260507222645 | 64 | 287 | 5.0 | 14.0 | 0.00 | 0.00 | 0.00 | 35 | 1013.7 |
| 20260507221653 | 64 | 313 | 6.0 | 12.0 | 0.00 | 0.00 | 0.00 | 34 | 1013.8 |
| 20260507220621 | 64 | 153 | 6.0 | 13.0 | 0.00 | 0.00 | 0.00 | 34 | 1013.9 |
| 20260507215619 | 63 | 188 | 5.0 | 10.0 | 0.00 | 0.00 | 0.00 | 36 | 1014.0 |
| 20260507214631 | 62 | 166 | 4.0 | 9.0 | 0.00 | 0.00 | 0.00 | 38 | 1014.1 |
| 20260507213619 | 61 | 138 | 6.0 | 13.0 | 0.00 | 0.00 | 0.00 | 37 | 1014.3 |
| 20260507212629 | 61 | 137 | 3.0 | 9.0 | 0.00 | 0.00 | 0.00 | 38 | 1014.5 |
| 20260507211618 | 61 | 117 | 10.0 | 16.0 | 0.00 | 0.00 | 0.00 | 36 | 1014.6 |
| 20260507210613 | 61 | 293 | 6.0 | 11.0 | 0.00 | 0.00 | 0.00 | 36 | 1014.8 |
| 20260507205616 | 62 | 141 | 7.0 | 15.0 | 0.00 | 0.00 | 0.00 | 36 | 1014.9 |
| 20260507204624 | 62 | 286 | 4.0 | 10.0 | 0.00 | 0.00 | 0.00 | 40 | 1014.9 |
| 20260507203651 | 62 | 288 | 2.0 | 11.0 | 0.00 | 0.00 | 0.00 | 38 | 1014.8 |
| 20260507202638 | 62 | 277 | 8.0 | 13.0 | 0.00 | 0.00 | 0.00 | 38 | 1014.8 |
| 20260507201648 | 63 | 274 | 10.0 | 16.0 | 0.00 | 0.00 | 0.00 | 37 | 1014.7 |
| 20260507200617 | 63 | 279 | 6.0 | 14.0 | 0.00 | 0.00 | 0.00 | 37 | 1014.9 |
| 20260507195635 | 64 | 219 | 3.0 | 11.0 | 0.00 | 0.00 | 0.00 | 36 | 1014.7 |
| 20260507194623 | 65 | 277 | 6.0 | 11.0 | 0.00 | 0.00 | 0.00 | 37 | 1014.8 |
| 20260507193618 | 65 | 229 | 6.0 | 15.0 | 0.00 | 0.00 | 0.00 | 31 | 1014.8 |
| 20260507192646 | 66 | 241 | 5.0 | 13.0 | 0.00 | 0.00 | 0.00 | 33 | 1014.9 |
| 20260507191613 | 66 | 300 | 6.0 | 11.0 | 0.00 | 0.00 | 0.00 | 37 | 1014.9 |
| 20260507190620 | 65 | 300 | 3.0 | 12.0 | 0.00 | 0.00 | 0.00 | 37 | 1014.8 |
| 20260507185625 | 65 | 251 | 6.0 | 13.0 | 0.00 | 0.00 | 0.00 | 36 | 1014.9 |
| 20260507184633 | 63 | 273 | 5.0 | 14.0 | 0.00 | 0.00 | 0.00 | 36 | 1014.9 |
| 20260507183619 | 62 | 53 | 8.0 | 15.0 | 0.00 | 0.00 | 0.00 | 33 | 1015.0 |
| 20260507182627 | 63 | 135 | 9.0 | 16.0 | 0.00 | 0.00 | 0.00 | 32 | 1015.0 |
| 20260507181637 | 62 | 302 | 5.0 | 12.0 | 0.00 | 0.00 | 0.00 | 35 | 1015.0 |
| 20260507180619 | 62 | 144 | 10.0 | 16.0 | 0.00 | 0.00 | 0.00 | 33 | 1015.0 |
| 20260507175618 | 63 | 113 | 7.0 | 12.0 | 0.00 | 0.00 | 0.00 | 33 | 1014.9 |
| 20260507174626 | 62 | 5 | 6.0 | 18.0 | 0.00 | 0.00 | 0.00 | 33 | 1014.9 |
| 20260507173615 | 62 | 286 | 8.0 | 16.0 | 0.00 | 0.00 | 0.00 | 33 | 1015.0 |
| 20260507172628 | 63 | 106 | 7.0 | 15.0 | 0.00 | 0.00 | 0.00 | 32 | 1015.0 |
| 20260507171615 | 63 | 152 | 6.0 | 14.0 | 0.00 | 0.00 | 0.00 | 32 | 1015.1 |
| 20260507170624 | 63 | 192 | 6.0 | 14.0 | 0.00 | 0.00 | 0.00 | 31 | 1015.1 |
| 20260507165624 | 63 | 303 | 6.0 | 15.0 | 0.00 | 0.02 | 0.00 | 33 | 1015.2 |
| 20260507164638 | 62 | 137 | 6.0 | 16.0 | 0.00 | 0.02 | 0.00 | 31 | 1015.2 |
| 20260507163645 | 61 | 298 | 5.0 | 13.0 | 0.00 | 0.02 | 0.00 | 34 | 1015.4 |
| 20260507162614 | 61 | 295 | 6.0 | 14.0 | 0.00 | 0.02 | 0.00 | 32 | 1015.5 |
| 20260507161619 | 60 | 292 | 5.0 | 12.0 | 0.00 | 0.02 | 0.00 | 34 | 1015.5 |
| 20260507160612 | 60 | 269 | 3.0 | 8.0 | 0.00 | 0.02 | 0.00 | 36 | 1015.6 |
| 20260507155613 | 60 | 274 | 4.0 | 11.0 | 0.00 | 0.08 | 0.00 | 32 | 1015.5 |
| 20260507154621 | 60 | 192 | 4.0 | 11.0 | 0.00 | 0.08 | 0.00 | 32 | 1015.6 |
| 20260507153630 | 59 | 146 | 4.0 | 9.0 | 0.00 | 0.08 | 0.00 | 34 | 1015.9 |
| 20260507152626 | 59 | 150 | 6.0 | 17.0 | 0.00 | 0.08 | 0.00 | 33 | 1016.0 |
| 20260507151616 | 58 | 125 | 2.0 | 5.0 | 0.00 | 0.08 | 0.00 | 32 | 1016.0 |
| 20260507150624 | 58 | 166 | 1.0 | 3.0 | 0.00 | 0.08 | 0.00 | 33 | 1016.0 |
| 20260507145626 | 57 | 147 | 3.0 | 7.0 | 0.00 | 0.08 | 0.00 | 33 | 1016.1 |
| 20260507144619 | 56 | 174 | 6.0 | 11.0 | 0.00 | 0.08 | 0.00 | 33 | 1016.2 |
| 20260507143628 | 56 | 126 | 7.0 | 11.0 | 0.00 | 0.08 | 0.00 | 33 | 1016.3 |
| 20260507142617 | 55 | 128 | 4.0 | 8.0 | 0.00 | 0.08 | 0.00 | 34 | 1016.3 |
| 20260507141627 | 55 | 132 | 2.0 | 7.0 | 0.00 | 0.08 | 0.00 | 34 | 1016.4 |
| 20260507140622 | 54 | 303 | 4.0 | 13.0 | 0.00 | 0.08 | 0.00 | 34 | 1016.1 |
| 20260507135622 | 54 | 125 | 10.0 | 18.0 | 0.00 | 0.08 | 0.00 | 33 | 1016.0 |
| 20260507134630 | 52 | 179 | 6.0 | 10.0 | 0.00 | 0.08 | 0.00 | 36 | 1016.1 |
| 20260507133618 | 50 | 115 | 6.0 | 11.0 | 0.00 | 0.08 | 0.00 | 41 | 1016.1 |
| 20260507132631 | 49 | 154 | 4.0 | 8.0 | 0.00 | 0.08 | 0.00 | 43 | 1016.0 |
| 20260507131620 | 49 | 143 | 4.0 | 9.0 | 0.00 | 0.08 | 0.00 | 42 | 1016.0 |
| 20260507130628 | 50 | 118 | 6.0 | 12.0 | 0.00 | 0.08 | 0.00 | 40 | 1015.9 |
| 20260507125629 | 50 | 121 | 6.0 | 12.0 | 0.00 | 0.08 | 0.00 | 41 | 1015.9 |
| 20260507124625 | 50 | 136 | 5.0 | 9.0 | 0.00 | 0.08 | 0.00 | 41 | 1016.1 |
| 20260507123615 | 50 | 225 | 3.0 | 4.0 | 0.00 | 0.08 | 0.00 | 39 | 1016.1 |
| 20260507122624 | 50 | 276 | 0.0 | 9.0 | 0.00 | 0.08 | 0.00 | 40 | 1016.3 |
| 20260507121620 | 50 | 132 | 0.0 | 5.0 | 0.00 | 0.08 | 0.00 | 41 | 1016.2 |
| 20260507120642 | 49 | 147 | 3.0 | 7.0 | 0.00 | 0.08 | 0.00 | 42 | 1016.1 |
| 20260507115622 | 50 | 107 | 5.0 | 8.0 | 0.00 | 0.08 | 0.00 | 40 | 1016.0 |
| 20260507114630 | 50 | 165 | 4.0 | 7.0 | 0.00 | 0.08 | 0.00 | 40 | 1016.0 |
| 20260507113620 | 51 | 92 | 4.0 | 11.0 | 0.00 | 0.08 | 0.00 | 39 | 1016.1 |
| 20260507112615 | 50 | 129 | 7.0 | 10.0 | 0.00 | 0.08 | 0.00 | 42 | 1016.0 |
| 20260507111625 | 50 | 187 | 0.0 | 0.0 | 0.00 | 0.08 | 0.00 | 41 | 1016.5 |
| 20260507110636 | 51 | 158 | 2.0 | 7.0 | 0.00 | 0.08 | 0.00 | 39 | 1016.2 |
| 20260507105617 | 51 | 171 | 4.0 | 9.0 | 0.00 | 0.08 | 0.00 | 39 | 1016.0 |
| 20260507104630 | 51 | 173 | 6.0 | 10.0 | 0.00 | 0.08 | 0.00 | 38 | 1016.0 |
| 20260507103618 | 50 | 173 | 3.0 | 8.0 | 0.00 | 0.08 | 0.00 | 39 | 1016.5 |
| 20260507102626 | 50 | 142 | 4.0 | 8.0 | 0.00 | 0.08 | 0.00 | 40 | 1016.2 |
| 20260507101615 | 50 | 153 | 5.0 | 8.0 | 0.00 | 0.08 | 0.00 | 39 | 1016.1 |
| 20260507100627 | 51 | 142 | 4.0 | 7.0 | 0.00 | 0.08 | 0.00 | 38 | 1016.1 |
| 20260507095628 | 51 | 186 | 4.0 | 8.0 | 0.00 | 0.08 | 0.00 | 38 | 1016.1 |
| 20260507094639 | 51 | 117 | 4.0 | 9.0 | 0.00 | 0.08 | 0.00 | 38 | 1016.1 |
| 20260507093628 | 51 | 165 | 4.0 | 9.0 | 0.00 | 0.08 | 0.00 | 38 | 1016.3 |
| 20260507092643 | 51 | 184 | 3.0 | 9.0 | 0.00 | 0.08 | 0.00 | 37 | 1016.4 |
| 20260507091630 | 51 | 144 | 5.0 | 10.0 | 0.00 | 0.08 | 0.00 | 38 | 1016.4 |
| 20260507090617 | 51 | 167 | 6.0 | 11.0 | 0.00 | 0.08 | 0.00 | 37 | 1016.4 |
| 20260507085619 | 51 | 178 | 7.0 | 11.0 | 0.00 | 0.08 | 0.00 | 37 | 1016.3 |
| 20260507084613 | 51 | 153 | 6.0 | 16.0 | 0.00 | 0.08 | 0.00 | 37 | 1016.3 |
| 20260507083622 | 51 | 125 | 6.0 | 9.0 | 0.00 | 0.08 | 0.00 | 38 | 1016.4 |
| 20260507082630 | 50 | 147 | 5.0 | 9.0 | 0.00 | 0.08 | 0.00 | 39 | 1016.6 |
| 20260507081618 | 48 | 149 | 4.0 | 9.0 | 0.00 | 0.08 | 0.00 | 42 | 1016.7 |
| 20260507080629 | 47 | 133 | 3.0 | 5.0 | 0.00 | 0.08 | 0.00 | 46 | 1016.8 |
| 20260507075624 | 49 | 133 | 2.0 | 7.0 | 0.00 | 0.08 | 0.00 | 44 | 1016.9 |
| 20260507074613 | 51 | 186 | 3.0 | 7.0 | 0.00 | 0.08 | 0.00 | 38 | 1016.9 |
| 20260507073621 | 51 | 119 | 4.0 | 14.0 | 0.00 | 0.08 | 0.00 | 37 | 1017.0 |
| 20260507072612 | 52 | 159 | 5.0 | 13.0 | 0.00 | 0.08 | 0.00 | 37 | 1017.1 |
| 20260507071623 | 51 | 140 | 6.0 | 10.0 | 0.00 | 0.08 | 0.00 | 38 | 1017.1 |
| 20260507070631 | 50 | 154 | 6.0 | 11.0 | 0.00 | 0.08 | 0.00 | 40 | 1017.2 |
| 20260507065612 | 50 | 110 | 5.0 | 15.0 | 0.00 | 0.08 | 0.00 | 41 | 1017.2 |
| 20260507064623 | 50 | 128 | 8.0 | 11.0 | 0.00 | 0.08 | 0.00 | 41 | 1017.1 |
| 20260507063630 | 50 | 106 | 10.0 | 13.0 | 0.00 | 0.08 | 0.00 | 41 | 1017.1 |
| 20260507062617 | 49 | 138 | 7.0 | 10.0 | 0.00 | 0.08 | 0.00 | 43 | 1017.3 |
| 20260507061645 | 50 | 128 | 7.0 | 12.0 | 0.00 | 0.08 | 0.00 | 42 | 1017.3 |
| 20260507060623 | 50 | 130 | 8.0 | 13.0 | 0.00 | 0.08 | 0.00 | 42 | 1017.3 |
| 20260507055626 | 50 | 121 | 5.0 | 11.0 | 0.00 | 0.08 | 0.08 | 42 | 1017.3 |
| 20260507054613 | 50 | 155 | 7.0 | 11.0 | 0.00 | 0.08 | 0.08 | 40 | 1017.4 |
| 20260507053620 | 50 | 127 | 7.0 | 12.0 | 0.00 | 0.08 | 0.08 | 40 | 1017.5 |
| 20260507052613 | 50 | 128 | 6.0 | 10.0 | 0.00 | 0.08 | 0.08 | 41 | 1017.6 |
| 20260507051622 | 50 | 160 | 5.0 | 11.0 | 0.00 | 0.08 | 0.08 | 42 | 1017.7 |
| 20260507050629 | 50 | 155 | 6.0 | 10.0 | 0.00 | 0.08 | 0.08 | 44 | 1017.7 |
| 20260507045629 | 50 | 142 | 4.0 | 7.0 | 0.00 | 0.08 | 0.08 | 44 | 1017.7 |
| 20260507044619 | 50 | 153 | 6.0 | 10.0 | 0.00 | 0.08 | 0.08 | 44 | 1017.7 |
| 20260507043627 | 51 | 159 | 5.0 | 11.0 | 0.00 | 0.08 | 0.08 | 43 | 1017.7 |
| 20260507042616 | 51 | 119 | 5.0 | 10.0 | 0.00 | 0.08 | 0.08 | 43 | 1017.6 |
| 20260507041625 | 51 | 114 | 8.0 | 10.0 | 0.00 | 0.08 | 0.08 | 43 | 1017.5 |
| 20260507040624 | 51 | 114 | 6.0 | 11.0 | 0.00 | 0.08 | 0.08 | 43 | 1017.4 |